createdAt,value
2023-02-27T00:00:29.038Z,-1.20
2023-02-27T00:02:56.319Z,-1.20
2023-02-27T00:05:23.483Z,-1.20
2023-02-27T00:07:51.352Z,-1.20
2023-02-27T00:10:19.112Z,-1.20
2023-02-27T00:12:46.315Z,-1.30
2023-02-27T00:15:19.821Z,-1.30
2023-02-27T00:17:46.866Z,-1.30
2023-02-27T00:20:17.903Z,-1.30
2023-02-27T00:22:46.183Z,-1.30
2023-02-27T00:25:14.335Z,-1.30
2023-02-27T00:27:42.168Z,-1.40
2023-02-27T00:30:13.515Z,-1.50
2023-02-27T00:32:41.565Z,-1.50
2023-02-27T00:35:11.969Z,-1.50
2023-02-27T00:37:41.964Z,-1.50
2023-02-27T00:40:11.317Z,-1.40
2023-02-27T00:42:38.463Z,-1.50
2023-02-27T00:45:06.760Z,-1.50
2023-02-27T00:47:34.800Z,-1.50
2023-02-27T00:50:02.450Z,-1.50
2023-02-27T00:52:29.754Z,-1.50
2023-02-27T00:54:56.794Z,-1.50
2023-02-27T00:57:24.001Z,-1.50
2023-02-27T00:59:51.125Z,-1.60
2023-02-27T01:02:18.566Z,-1.60
2023-02-27T01:04:45.793Z,-1.50
2023-02-27T01:07:13.078Z,-1.60
2023-02-27T01:09:40.197Z,-1.60
2023-02-27T01:12:07.994Z,-1.70
2023-02-27T01:14:35.215Z,-1.70
2023-02-27T01:17:02.712Z,-1.80
2023-02-27T01:19:29.885Z,-1.80
2023-02-27T01:21:57.086Z,-1.80
2023-02-27T01:24:24.283Z,-1.80
2023-02-27T01:26:52.842Z,-1.70
2023-02-27T01:29:20.238Z,-1.80
2023-02-27T01:31:48.960Z,-1.80
2023-02-27T01:34:17.162Z,-1.90
2023-02-27T01:36:44.608Z,-1.90
2023-02-27T01:39:11.872Z,-1.90
2023-02-27T01:41:40.475Z,-1.90
2023-02-27T01:44:13.403Z,-2.00
2023-02-27T01:46:41.431Z,-2.00
2023-02-27T01:49:30.140Z,-2.00
2023-02-27T01:52:06.134Z,-2.00
2023-02-27T01:54:39.819Z,-2.00
2023-02-27T01:57:07.514Z,-2.00
2023-02-27T01:59:36.524Z,-2.00
2023-02-27T02:02:22.186Z,-2.10
2023-02-27T02:04:51.398Z,-2.10
2023-02-27T02:07:21.294Z,-2.10
2023-02-27T02:09:58.004Z,-2.10
2023-02-27T02:12:31.857Z,-2.20
2023-02-27T02:14:58.994Z,-2.20
2023-02-27T02:17:52.116Z,-2.20
2023-02-27T02:20:48.619Z,-2.20
2023-02-27T02:23:56.463Z,-2.10
2023-02-27T02:27:18.964Z,-2.20
2023-02-27T02:29:52.786Z,-2.20
2023-02-27T02:32:46.817Z,-2.30
2023-02-27T02:35:52.287Z,-2.30
2023-02-27T02:39:06.127Z,-2.20
2023-02-27T02:42:27.362Z,-2.30
2023-02-27T02:45:17.914Z,-2.30
2023-02-27T02:48:01.248Z,-2.30
2023-02-27T02:51:10.735Z,-2.40
2023-02-27T02:54:11.071Z,-2.30
2023-02-27T02:57:00.567Z,-2.30
2023-02-27T02:59:36.537Z,-2.30
2023-02-27T03:02:24.413Z,-2.40
2023-02-27T03:05:19.207Z,-2.40
2023-02-27T03:07:56.405Z,-2.40
2023-02-27T03:10:31.259Z,-2.50
2023-02-27T03:13:18.076Z,-2.50
2023-02-27T03:15:53.373Z,-2.50
2023-02-27T03:18:32.499Z,-2.60
2023-02-27T03:21:09.917Z,-2.50
2023-02-27T03:23:44.727Z,-2.50
2023-02-27T03:26:19.238Z,-2.40
2023-02-27T03:29:00.889Z,-2.40
2023-02-27T03:31:38.700Z,-2.40
2023-02-27T03:34:36.869Z,-2.40
2023-02-27T03:37:30.436Z,-2.40
2023-02-27T03:40:26.785Z,-2.50
2023-02-27T03:43:05.492Z,-2.50
2023-02-27T03:46:09.628Z,-2.40
2023-02-27T03:48:37.566Z,-2.50
2023-02-27T03:51:05.218Z,-2.50
2023-02-27T03:53:46.640Z,-2.50
2023-02-27T03:56:16.970Z,-2.50
2023-02-27T03:58:44.777Z,-2.50
2023-02-27T04:01:12.313Z,-2.50
2023-02-27T04:03:51.578Z,-2.50
2023-02-27T04:06:54.019Z,-2.50
2023-02-27T04:09:48.364Z,-2.50
2023-02-27T04:12:49.681Z,-2.60
2023-02-27T04:15:40.876Z,-2.60
2023-02-27T04:18:46.618Z,-2.60
2023-02-27T04:21:47.357Z,-2.60
2023-02-27T04:24:38.379Z,-2.60
2023-02-27T04:27:56.906Z,-2.60
2023-02-27T04:31:02.664Z,-2.70
2023-02-27T04:34:05.310Z,-2.60
2023-02-27T04:36:48.050Z,-2.60
2023-02-27T04:39:39.738Z,-2.60
2023-02-27T04:42:13.647Z,-2.60
2023-02-27T04:44:42.619Z,-2.60
2023-02-27T04:47:13.445Z,-2.70
2023-02-27T04:49:52.085Z,-2.60
2023-02-27T04:52:22.695Z,-2.70
2023-02-27T04:55:05.535Z,-2.70
2023-02-27T04:57:41.239Z,-2.70
2023-02-27T05:00:13.853Z,-2.70
2023-02-27T05:02:48.216Z,-2.70
2023-02-27T05:05:23.408Z,-2.70
2023-02-27T05:08:10.526Z,-2.70
2023-02-27T05:11:18.880Z,-2.70
2023-02-27T05:13:55.341Z,-2.70
2023-02-27T05:16:52.518Z,-2.70
2023-02-27T05:19:20.803Z,-2.70
2023-02-27T05:22:11.084Z,-2.80
2023-02-27T05:25:28.143Z,-2.70
2023-02-27T05:28:04.399Z,-2.70
2023-02-27T05:30:53.016Z,-2.70
2023-02-27T05:33:55.399Z,-2.60
2023-02-27T05:36:35.442Z,-2.60
2023-02-27T05:39:09.980Z,-2.60
2023-02-27T05:41:49.751Z,-2.70
2023-02-27T05:44:34.232Z,-2.70
2023-02-27T05:47:08.275Z,-2.70
2023-02-27T05:50:08.434Z,-2.80
2023-02-27T05:52:37.983Z,-2.70
2023-02-27T05:55:28.201Z,-2.80
2023-02-27T05:58:26.405Z,-2.80
2023-02-27T06:01:03.277Z,-2.80
2023-02-27T06:03:34.849Z,-2.80
2023-02-27T06:06:09.404Z,-2.70
2023-02-27T06:08:36.661Z,-2.80
2023-02-27T06:11:03.858Z,-2.80
2023-02-27T06:13:31.041Z,-2.80
2023-02-27T06:15:58.527Z,-2.80
2023-02-27T06:18:25.720Z,-2.90
2023-02-27T06:20:52.824Z,-2.90
2023-02-27T06:23:20.175Z,-2.90
2023-02-27T06:25:48.627Z,-2.90
2023-02-27T06:28:15.916Z,-3.00
2023-02-27T06:30:44.671Z,-3.00
2023-02-27T06:33:13.168Z,-3.00
2023-02-27T06:35:40.442Z,-3.00
2023-02-27T06:38:07.507Z,-3.00
2023-02-27T06:40:34.553Z,-3.00
2023-02-27T06:43:01.792Z,-3.00
2023-02-27T06:45:29.156Z,-3.00
2023-02-27T06:47:56.451Z,-3.00
2023-02-27T06:50:23.883Z,-3.00
2023-02-27T06:52:51.121Z,-3.00
2023-02-27T06:55:20.840Z,-3.00
2023-02-27T06:57:48.840Z,-3.00
2023-02-27T07:00:20.572Z,-3.00
2023-02-27T07:03:10.004Z,-3.00
2023-02-27T07:05:58.292Z,-3.00
2023-02-27T07:09:00.923Z,-3.00
2023-02-27T07:11:37.452Z,-2.90
2023-02-27T07:14:28.298Z,-2.90
2023-02-27T07:16:58.001Z,-2.80
2023-02-27T07:19:41.264Z,-2.80
2023-02-27T07:22:14.322Z,-2.80
2023-02-27T07:24:46.404Z,-2.80
2023-02-27T07:27:18.341Z,-2.70
2023-02-27T07:29:54.188Z,-2.60
2023-02-27T07:32:27.861Z,-2.60
2023-02-27T07:34:57.634Z,-2.60
2023-02-27T07:37:28.833Z,-2.60
2023-02-27T07:40:04.200Z,-2.50
2023-02-27T07:42:35.163Z,-2.50
2023-02-27T07:45:21.052Z,-2.40
2023-02-27T07:47:48.435Z,-2.40
2023-02-27T07:50:21.781Z,-2.30
2023-02-27T07:52:52.730Z,-2.30
2023-02-27T07:55:22.587Z,-2.30
2023-02-27T07:57:49.873Z,-2.20
2023-02-27T08:00:18.025Z,-2.20
2023-02-27T08:02:47.950Z,-2.20
2023-02-27T08:05:25.146Z,-2.10
2023-02-27T08:07:56.802Z,-2.10
2023-02-27T08:10:27.996Z,-2.00
2023-02-27T08:12:59.823Z,-2.00
2023-02-27T08:15:31.768Z,-2.00
2023-02-27T08:17:59.357Z,-1.90
2023-02-27T08:20:39.527Z,-1.80
2023-02-27T08:23:13.477Z,-1.80
2023-02-27T08:25:45.916Z,-1.70
2023-02-27T08:28:28.397Z,-1.60
2023-02-27T08:30:56.294Z,-1.50
2023-02-27T08:33:24.515Z,-1.50
2023-02-27T08:35:52.022Z,-1.40
2023-02-27T08:38:21.941Z,-1.30
2023-02-27T08:40:54.114Z,-1.20
2023-02-27T08:43:23.007Z,-1.20
2023-02-27T08:45:51.537Z,-1.10
2023-02-27T08:48:19.228Z,-1.10
2023-02-27T08:51:00.756Z,-1.00
2023-02-27T08:53:42.862Z,-1.00
2023-02-27T08:56:13.474Z,-0.90
2023-02-27T08:58:52.596Z,-0.80
2023-02-27T09:01:34.110Z,-0.80
2023-02-27T09:04:08.940Z,-0.70
2023-02-27T09:06:36.957Z,-0.60
2023-02-27T09:09:11.417Z,-0.60
2023-02-27T09:12:05.499Z,-0.50
2023-02-27T09:14:37.826Z,-0.40
2023-02-27T09:17:15.237Z,-0.30
2023-02-27T09:19:48.073Z,-0.10
2023-02-27T09:22:27.160Z,0.00
2023-02-27T09:24:58.705Z,0.10
2023-02-27T09:27:33.409Z,0.20
2023-02-27T09:30:02.503Z,0.20
2023-02-27T09:32:32.799Z,0.20
2023-02-27T09:35:15.600Z,0.30
2023-02-27T09:37:55.306Z,0.40
2023-02-27T09:40:33.964Z,0.50
2023-02-27T09:43:43.092Z,0.60
2023-02-27T09:46:21.832Z,0.60
2023-02-27T09:49:09.116Z,0.80
2023-02-27T09:52:18.183Z,0.80
2023-02-27T09:54:57.867Z,1.00
2023-02-27T09:58:10.892Z,1.20
2023-02-27T10:00:50.231Z,1.30
2023-02-27T10:03:48.567Z,1.30
2023-02-27T10:06:52.583Z,1.40
2023-02-27T10:09:51.840Z,1.50
2023-02-27T10:12:53.665Z,1.50
2023-02-27T10:15:32.609Z,1.60
2023-02-27T10:18:26.801Z,1.70
2023-02-27T10:21:31.010Z,1.70
2023-02-27T10:28:01.311Z,1.80
2023-02-27T10:31:27.243Z,1.70
2023-02-27T10:34:03.372Z,1.70
2023-02-27T10:40:00.790Z,1.80
2023-02-27T10:42:44.935Z,2.00
2023-02-27T10:45:31.728Z,2.10
2023-02-27T10:49:03.676Z,2.10
2023-02-27T10:51:55.088Z,2.20
2023-02-27T10:57:54.525Z,2.30
2023-02-27T11:01:13.326Z,2.30
2023-02-27T11:03:56.896Z,2.50
2023-02-27T11:06:40.046Z,2.60
2023-02-27T11:10:30.330Z,2.60
2023-02-27T11:13:42.647Z,2.60
2023-02-27T11:16:45.978Z,2.60
2023-02-27T11:19:46.509Z,2.70
2023-02-27T11:22:44.658Z,2.70
2023-02-27T11:29:25.158Z,2.70
2023-02-27T11:32:58.432Z,2.80
2023-02-27T11:35:46.250Z,2.80
2023-02-27T11:39:07.765Z,3.10
2023-02-27T11:42:16.433Z,3.20
2023-02-27T11:46:47.417Z,3.50
2023-02-27T11:50:56.760Z,3.50
2023-02-27T11:53:20.607Z,3.40
2023-02-27T11:56:27.235Z,3.40
2023-02-27T12:04:23.447Z,3.40
2023-02-27T12:11:26.900Z,3.40
2023-02-27T12:15:11.605Z,3.50
2023-02-27T12:18:18.337Z,3.50
2023-02-27T12:21:30.804Z,3.60
2023-02-27T12:24:25.674Z,3.70
2023-02-27T12:27:34.365Z,3.70
2023-02-27T12:30:35.973Z,3.80
2023-02-27T12:34:29.429Z,3.80
2023-02-27T12:37:50.254Z,3.80
2023-02-27T12:40:46.905Z,3.70
2023-02-27T12:44:13.510Z,3.70
2023-02-27T12:47:35.361Z,3.70
2023-02-27T12:54:31.951Z,3.90
2023-02-27T12:57:56.610Z,3.90
2023-02-27T13:00:57.669Z,4.00
2023-02-27T13:05:47.377Z,4.00
2023-02-27T13:08:44.664Z,4.00
2023-02-27T13:10:58.069Z,4.10
2023-02-27T13:14:15.084Z,4.00
2023-02-27T13:17:42.613Z,4.10
2023-02-27T13:21:24.048Z,4.20
2023-02-27T13:24:28.863Z,4.20
2023-02-27T13:27:43.208Z,4.30
2023-02-27T13:31:00.788Z,4.30
2023-02-27T13:33:53.140Z,4.20
2023-02-27T13:37:23.469Z,4.20
2023-02-27T13:40:45.952Z,4.30
2023-02-27T13:45:03.622Z,4.30
2023-02-27T13:47:32.372Z,4.30
2023-02-27T13:50:24.923Z,4.20
2023-02-27T13:53:31.044Z,4.20
2023-02-27T13:56:30.300Z,4.30
2023-02-27T13:59:40.640Z,4.40
2023-02-27T14:02:33.843Z,4.50
2023-02-27T14:05:13.252Z,4.60
2023-02-27T14:08:20.867Z,4.60
2023-02-27T14:11:50.723Z,4.60
2023-02-27T14:14:48.221Z,4.60
2023-02-27T14:18:52.051Z,4.50
2023-02-27T14:20:58.704Z,4.30
2023-02-27T14:23:37.762Z,4.40
2023-02-27T14:26:50.384Z,4.40
2023-02-27T14:31:05.017Z,4.40
2023-02-27T14:33:53.450Z,4.40
2023-02-27T14:36:55.851Z,4.50
2023-02-27T14:40:29.965Z,4.60
2023-02-27T14:47:38.451Z,4.90
2023-02-27T14:50:37.988Z,5.10
2023-02-27T14:55:47.492Z,5.00
2023-02-27T14:57:42.268Z,4.80
2023-02-27T15:00:48.893Z,4.50
2023-02-27T15:04:04.665Z,4.50
2023-02-27T15:07:02.599Z,4.50
2023-02-27T15:09:51.236Z,4.60
2023-02-27T15:12:47.235Z,4.50
2023-02-27T15:16:14.934Z,4.50
2023-02-27T15:19:07.099Z,4.40
2023-02-27T15:22:10.561Z,4.30
2023-02-27T15:25:00.844Z,4.30
2023-02-27T15:27:33.578Z,4.10
2023-02-27T15:33:27.417Z,3.90
2023-02-27T15:36:12.840Z,3.90
2023-02-27T15:39:34.410Z,3.80
2023-02-27T15:43:00.532Z,3.70
2023-02-27T15:45:54.479Z,3.80
2023-02-27T15:48:38.116Z,3.80
2023-02-27T15:51:20.550Z,3.90
2023-02-27T15:54:51.511Z,3.90
2023-02-27T15:57:38.591Z,3.80
2023-02-27T16:00:38.407Z,3.70
2023-02-27T16:07:57.790Z,3.60
2023-02-27T16:11:23.122Z,3.60
2023-02-27T16:14:03.252Z,3.60
2023-02-27T16:17:10.058Z,3.60
2023-02-27T16:19:49.088Z,3.50
2023-02-27T16:22:55.952Z,3.40
2023-02-27T16:25:48.092Z,3.40
2023-02-27T16:28:30.274Z,3.30
2023-02-27T16:31:37.388Z,3.20
2023-02-27T16:34:32.618Z,3.20
2023-02-27T16:38:23.320Z,3.10
2023-02-27T16:41:00.140Z,3.00
2023-02-27T16:43:46.526Z,3.10
2023-02-27T16:47:26.132Z,3.00
2023-02-27T16:49:40.518Z,3.00
2023-02-27T16:52:24.397Z,2.90
2023-02-27T16:55:05.108Z,2.80
2023-02-27T16:57:50.638Z,2.70
2023-02-27T17:00:24.287Z,2.70
2023-02-27T17:03:22.958Z,2.70
2023-02-27T17:06:02.723Z,2.70
2023-02-27T17:09:18.984Z,2.70
2023-02-27T17:16:08.633Z,2.50
2023-02-27T17:18:19.213Z,2.50
2023-02-27T17:21:07.825Z,2.40
2023-02-27T17:24:11.176Z,2.40
2023-02-27T17:30:47.198Z,2.30
2023-02-27T17:36:19.405Z,2.20
2023-02-27T17:39:25.999Z,2.10
2023-02-27T17:42:29.913Z,2.10
2023-02-27T17:45:32.369Z,2.10
2023-02-27T17:48:08.314Z,2.00
2023-02-27T17:50:49.243Z,2.00
2023-02-27T17:54:00.671Z,1.90
2023-02-27T17:57:33.841Z,1.80
2023-02-27T17:59:50.282Z,1.70
2023-02-27T18:02:51.984Z,1.60
2023-02-27T18:05:34.110Z,1.50
2023-02-27T18:08:52.552Z,1.40
2023-02-27T18:18:13.089Z,1.50
2023-02-27T18:20:44.999Z,1.60
2023-02-27T18:23:27.984Z,1.60
2023-02-27T18:26:28.911Z,1.60
2023-02-27T18:29:11.789Z,1.60
2023-02-27T18:32:12.638Z,1.70
2023-02-27T18:35:16.498Z,1.70
2023-02-27T18:38:03.192Z,1.70
2023-02-27T18:40:51.261Z,1.70
2023-02-27T18:43:46.063Z,1.80
2023-02-27T18:46:58.241Z,1.80
2023-02-27T18:53:02.914Z,1.80
2023-02-27T18:55:55.170Z,1.80
2023-02-27T18:59:31.237Z,1.80
2023-02-27T19:02:56.790Z,1.80
2023-02-27T19:05:33.061Z,1.80
2023-02-27T19:08:38.124Z,1.80
2023-02-27T19:12:08.151Z,1.80
2023-02-27T19:15:07.898Z,1.80
2023-02-27T19:21:56.312Z,1.80
2023-02-27T19:25:08.589Z,1.80
2023-02-27T19:28:05.255Z,1.70
2023-02-27T19:30:55.230Z,1.60
2023-02-27T19:34:00.908Z,1.60
2023-02-27T19:37:03.101Z,1.70
2023-02-27T19:39:32.575Z,1.70
2023-02-27T19:42:48.705Z,1.60
2023-02-27T19:48:46.418Z,1.50
2023-02-27T19:55:06.616Z,1.40
2023-02-27T19:58:36.269Z,1.20
2023-02-27T20:01:30.990Z,1.10
2023-02-27T20:04:33.133Z,1.10
2023-02-27T20:07:33.178Z,1.10
2023-02-27T20:10:23.849Z,1.00
2023-02-27T20:16:47.952Z,0.90
2023-02-27T20:19:48.606Z,0.90
2023-02-27T20:26:06.970Z,0.80
2023-02-27T20:33:32.261Z,0.80
2023-02-27T20:36:27.647Z,0.70
2023-02-27T20:39:13.898Z,0.60
2023-02-27T20:46:00.112Z,0.50
2023-02-27T20:48:54.546Z,0.50
2023-02-27T20:55:17.733Z,0.60
2023-02-27T20:58:11.831Z,0.50
2023-02-27T21:01:19.510Z,0.50
2023-02-27T21:04:09.099Z,0.40
2023-02-27T21:07:31.184Z,0.30
2023-02-27T21:47:26.248Z,0.00
2023-02-27T21:50:34.394Z,-0.20
2023-02-27T21:53:56.335Z,-0.20
2023-02-27T21:57:59.574Z,-0.30
2023-02-27T22:18:07.749Z,-0.50
2023-02-27T22:21:35.611Z,-0.60
2023-02-27T22:24:50.074Z,-0.60
2023-02-27T22:35:42.661Z,-0.80
2023-02-27T22:44:04.880Z,-0.90
2023-02-27T22:56:20.004Z,-1.00
2023-02-27T22:58:04.026Z,-1.00
2023-02-27T23:01:13.170Z,-1.00
2023-02-27T23:04:47.046Z,-1.10
2023-02-27T23:07:25.387Z,-1.00
2023-02-27T23:11:34.370Z,-1.10
2023-02-27T23:15:11.965Z,-1.00
2023-02-27T23:16:57.480Z,-1.00
2023-02-27T23:20:07.175Z,-1.00
2023-02-27T23:23:10.254Z,-1.10
2023-02-27T23:27:24.636Z,-1.10
2023-02-27T23:34:49.401Z,-1.10
2023-02-27T23:38:44.713Z,-1.10
2023-02-27T23:44:47.448Z,-1.10
2023-02-27T23:47:59.323Z,-1.10
2023-02-27T23:54:17.859Z,-1.10
2023-02-27T23:58:01.593Z,-1.00
